createdAt,value
2023-03-17T00:00:02.078Z,99.27
2023-03-17T00:03:25.015Z,100.00
2023-03-17T00:06:29.764Z,100.00
2023-03-17T00:09:31.192Z,100.00
2023-03-17T00:12:32.641Z,100.00
2023-03-17T00:15:34.444Z,100.00
2023-03-17T00:18:37.052Z,100.00
2023-03-17T00:21:38.582Z,100.00
2023-03-17T00:24:40.041Z,100.00
2023-03-17T00:27:41.432Z,100.00
2023-03-17T00:30:43.302Z,100.00
2023-03-17T00:33:45.676Z,100.00
2023-03-17T00:36:49.430Z,100.00
2023-03-17T00:39:50.760Z,100.00
2023-03-17T00:42:53.200Z,100.00
2023-03-17T00:45:54.708Z,100.00
2023-03-17T00:48:56.254Z,100.00
2023-03-17T00:51:57.719Z,100.00
2023-03-17T00:54:59.162Z,100.00
2023-03-17T00:58:00.610Z,100.00
2023-03-17T01:01:02.161Z,100.00
2023-03-17T01:04:03.697Z,100.00
2023-03-17T01:07:05.624Z,100.00
2023-03-17T01:10:15.993Z,100.00
2023-03-17T01:13:17.460Z,100.00
2023-03-17T01:16:18.880Z,100.00
2023-03-17T01:19:21.067Z,100.00
2023-03-17T01:22:22.647Z,100.00
2023-03-17T01:25:24.353Z,100.00
2023-03-17T01:28:25.810Z,100.00
2023-03-17T01:31:27.335Z,100.00
2023-03-17T01:34:29.139Z,100.00
2023-03-17T01:37:30.724Z,100.00
2023-03-17T01:40:35.001Z,100.00
2023-03-17T01:43:36.415Z,100.00
2023-03-17T01:46:37.885Z,100.00
2023-03-17T01:49:39.452Z,100.00
2023-03-17T01:52:41.001Z,100.00
2023-03-17T01:55:44.527Z,100.00
2023-03-17T01:58:48.670Z,100.00
2023-03-17T02:01:54.568Z,100.00
2023-03-17T02:04:57.039Z,100.00
2023-03-17T02:07:58.979Z,100.00
2023-03-17T02:11:04.116Z,100.00
2023-03-17T02:14:05.595Z,100.00
2023-03-17T02:17:07.337Z,100.00
2023-03-17T02:20:32.656Z,100.00
2023-03-17T02:23:34.179Z,100.00
2023-03-17T02:26:36.817Z,100.00
2023-03-17T02:29:38.337Z,100.00
2023-03-17T02:32:39.921Z,100.00
2023-03-17T02:35:41.585Z,100.00
2023-03-17T02:38:43.203Z,100.00
2023-03-17T02:41:44.650Z,100.00
2023-03-17T02:44:46.132Z,100.00
2023-03-17T02:47:49.369Z,100.00
2023-03-17T02:50:50.788Z,100.00
2023-03-17T02:53:52.230Z,100.00
2023-03-17T02:56:53.668Z,100.00
2023-03-17T02:59:55.070Z,100.00
2023-03-17T03:02:56.703Z,100.00
2023-03-17T03:05:58.249Z,100.00
2023-03-17T03:08:59.719Z,100.00
2023-03-17T03:12:01.209Z,100.00
2023-03-17T03:15:02.705Z,100.00
2023-03-17T03:18:04.159Z,100.00
2023-03-17T03:21:06.190Z,100.00
2023-03-17T03:24:08.465Z,100.00
2023-03-17T03:27:10.006Z,100.00
2023-03-17T03:30:11.820Z,100.00
2023-03-17T03:33:14.691Z,100.00
2023-03-17T03:36:16.192Z,100.00
2023-03-17T03:39:17.671Z,100.00
2023-03-17T03:42:19.100Z,100.00
2023-03-17T03:45:20.588Z,100.00
2023-03-17T03:48:22.555Z,100.00
2023-03-17T03:51:24.154Z,100.00
2023-03-17T03:54:25.643Z,100.00
2023-03-17T03:57:27.234Z,100.00
2023-03-17T04:00:29.235Z,100.00
2023-03-17T04:03:30.751Z,100.00
2023-03-17T04:06:32.280Z,100.00
2023-03-17T04:09:33.731Z,100.00
2023-03-17T04:12:35.294Z,100.00
2023-03-17T04:15:36.920Z,100.00
2023-03-17T04:18:38.392Z,100.00
2023-03-17T04:21:39.856Z,100.00
2023-03-17T04:24:41.280Z,100.00
2023-03-17T04:27:42.871Z,100.00
2023-03-17T04:30:44.272Z,100.00
2023-03-17T04:33:45.702Z,100.00
2023-03-17T04:36:47.883Z,100.00
2023-03-17T04:39:49.329Z,100.00
2023-03-17T04:42:50.733Z,100.00
2023-03-17T04:45:52.188Z,100.00
2023-03-17T04:48:53.897Z,100.00
2023-03-17T04:51:55.391Z,100.00
2023-03-17T04:54:57.029Z,100.00
2023-03-17T04:57:58.450Z,100.00
2023-03-17T05:01:00.037Z,100.00
2023-03-17T05:04:01.513Z,100.00
2023-03-17T05:07:03.084Z,100.00
2023-03-17T05:10:05.212Z,100.00
2023-03-17T05:13:06.708Z,100.00
2023-03-17T05:16:09.061Z,100.00
2023-03-17T05:19:10.575Z,100.00
2023-03-17T05:22:12.022Z,100.00
2023-03-17T05:25:13.470Z,100.00
2023-03-17T05:28:15.171Z,100.00
2023-03-17T05:31:16.726Z,100.00
2023-03-17T05:34:18.231Z,100.00
2023-03-17T05:37:19.683Z,100.00
2023-03-17T05:40:22.596Z,100.00
2023-03-17T05:43:25.407Z,100.00
2023-03-17T05:46:26.956Z,100.00
2023-03-17T05:49:28.583Z,100.00
2023-03-17T05:52:30.872Z,100.00
2023-03-17T05:55:32.349Z,100.00
2023-03-17T05:58:33.838Z,100.00
2023-03-17T06:01:35.292Z,100.00
2023-03-17T06:04:37.654Z,100.00
2023-03-17T06:07:51.598Z,100.00
2023-03-17T06:10:56.159Z,100.00
2023-03-17T06:13:57.641Z,100.00
2023-03-17T06:16:59.045Z,100.00
2023-03-17T06:20:00.453Z,100.00
2023-03-17T06:23:05.334Z,100.00
2023-03-17T06:26:08.460Z,100.00
2023-03-17T06:29:10.018Z,100.00
2023-03-17T06:32:20.276Z,100.00
2023-03-17T06:35:22.321Z,100.00
2023-03-17T06:38:23.728Z,100.00
2023-03-17T06:41:25.180Z,100.00
2023-03-17T06:44:26.599Z,100.00
2023-03-17T06:47:27.995Z,99.43
2023-03-17T06:50:29.950Z,100.00
2023-03-17T06:53:31.606Z,100.00
2023-03-17T06:56:33.041Z,100.00
2023-03-17T06:59:34.458Z,100.00
2023-03-17T07:02:35.859Z,100.00
2023-03-17T07:05:37.318Z,100.00
2023-03-17T07:08:38.691Z,100.00
2023-03-17T07:11:40.103Z,100.00
2023-03-17T07:14:41.631Z,100.00
2023-03-17T07:17:43.208Z,100.00
2023-03-17T07:20:44.708Z,100.00
2023-03-17T07:23:46.090Z,89.85
2023-03-17T07:26:47.449Z,72.58
2023-03-17T07:29:48.882Z,67.61
2023-03-17T07:32:50.284Z,74.72
2023-03-17T07:35:51.932Z,94.56
2023-03-17T07:38:53.381Z,96.91
2023-03-17T07:41:54.983Z,92.39
2023-03-17T07:44:56.478Z,97.43
2023-03-17T07:47:57.876Z,99.86
2023-03-17T07:50:59.441Z,99.11
2023-03-17T07:54:01.243Z,95.66
2023-03-17T07:57:03.301Z,74.98
2023-03-17T08:00:06.569Z,60.69
2023-03-17T08:03:12.791Z,61.85
2023-03-17T08:06:14.224Z,76.78
2023-03-17T08:09:15.650Z,84.76
2023-03-17T08:12:17.069Z,85.20
2023-03-17T08:15:18.701Z,85.29
2023-03-17T08:18:20.074Z,78.75
2023-03-17T08:21:21.499Z,75.45
2023-03-17T08:24:22.878Z,75.31
2023-03-17T08:27:24.712Z,72.64
2023-03-17T08:30:26.161Z,73.00
2023-03-17T08:33:27.577Z,71.83
2023-03-17T08:36:29.327Z,73.30
2023-03-17T08:39:30.928Z,72.68
2023-03-17T08:42:32.329Z,70.37
2023-03-17T08:45:33.759Z,69.86
2023-03-17T08:48:36.484Z,72.02
2023-03-17T08:51:38.792Z,72.39
2023-03-17T08:54:40.173Z,72.45
2023-03-17T08:57:42.777Z,72.23
2023-03-17T09:00:44.159Z,68.46
2023-03-17T09:03:45.559Z,66.84
2023-03-17T09:07:02.272Z,65.32
2023-03-17T09:10:06.080Z,65.09
2023-03-17T09:13:07.464Z,64.75
2023-03-17T09:16:09.022Z,63.98
2023-03-17T09:19:10.470Z,62.77
2023-03-17T09:22:13.919Z,61.52
2023-03-17T09:25:16.456Z,61.22
2023-03-17T09:28:18.098Z,60.25
2023-03-17T09:31:19.564Z,60.36
2023-03-17T09:34:20.973Z,59.38
2023-03-17T09:37:22.385Z,58.48
2023-03-17T09:40:31.209Z,58.54
2023-03-17T09:43:47.947Z,58.20
2023-03-17T09:47:20.841Z,56.32
2023-03-17T09:50:27.070Z,57.23
2023-03-17T09:53:40.599Z,55.26
2023-03-17T09:56:43.137Z,55.35
2023-03-17T09:59:47.787Z,58.11
2023-03-17T10:02:49.229Z,58.80
2023-03-17T10:05:50.994Z,58.82
2023-03-17T10:09:02.218Z,57.85
2023-03-17T10:12:08.320Z,57.85
2023-03-17T10:15:54.975Z,56.96
2023-03-17T10:19:09.758Z,58.64
2023-03-17T10:22:21.038Z,58.42
2023-03-17T10:25:34.797Z,58.82
2023-03-17T10:28:36.596Z,58.66
2023-03-17T10:31:38.266Z,59.21
2023-03-17T10:34:42.023Z,58.31
2023-03-17T10:37:46.445Z,57.99
2023-03-17T10:40:58.826Z,55.87
2023-03-17T10:44:00.377Z,56.53
2023-03-17T10:47:01.892Z,56.13
2023-03-17T10:50:20.406Z,54.63
2023-03-17T10:53:23.972Z,54.30
2023-03-17T10:56:28.223Z,53.88
2023-03-17T10:59:32.130Z,54.48
2023-03-17T11:02:44.289Z,54.36
2023-03-17T11:06:03.346Z,54.37
2023-03-17T11:09:09.182Z,53.85
2023-03-17T11:12:28.546Z,53.94
2023-03-17T11:15:35.553Z,54.90
2023-03-17T11:18:39.286Z,54.96
2023-03-17T11:21:57.348Z,53.76
2023-03-17T11:25:19.752Z,52.85
2023-03-17T11:28:22.541Z,53.83
2023-03-17T11:31:32.724Z,52.55
2023-03-17T11:35:03.528Z,52.77
2023-03-17T11:38:21.819Z,53.25
2023-03-17T11:41:58.560Z,51.43
2023-03-17T11:44:59.977Z,53.04
2023-03-17T11:48:13.220Z,52.80
2023-03-17T11:51:36.495Z,51.46
2023-03-17T11:55:05.064Z,50.86
2023-03-17T11:58:12.160Z,51.95
2023-03-17T12:01:19.340Z,50.91
2023-03-17T12:04:27.300Z,50.56
2023-03-17T12:07:43.647Z,50.33
2023-03-17T12:10:52.821Z,49.70
2023-03-17T12:14:15.189Z,49.67
2023-03-17T12:17:21.015Z,50.64
2023-03-17T12:20:34.950Z,49.19
2023-03-17T12:23:45.817Z,50.36
2023-03-17T12:27:13.202Z,49.05
2023-03-17T12:30:22.256Z,48.76
2023-03-17T12:33:49.802Z,49.06
2023-03-17T12:36:52.351Z,49.56
2023-03-17T12:40:01.415Z,49.28
2023-03-17T12:43:24.015Z,49.31
2023-03-17T12:46:47.395Z,48.09
2023-03-17T12:50:27.255Z,48.41
2023-03-17T12:53:32.139Z,49.41
2023-03-17T12:56:36.079Z,49.27
2023-03-17T12:59:42.942Z,49.50
2023-03-17T13:02:49.098Z,49.09
2023-03-17T13:05:54.400Z,48.59
2023-03-17T13:08:55.943Z,48.67
2023-03-17T13:11:58.538Z,48.46
2023-03-17T13:14:59.986Z,49.33
2023-03-17T13:18:27.204Z,48.41
2023-03-17T13:21:31.034Z,48.91
2023-03-17T13:24:42.209Z,48.79
2023-03-17T13:27:45.194Z,49.17
2023-03-17T13:31:24.342Z,48.96
2023-03-17T13:34:28.165Z,49.29
2023-03-17T13:37:35.525Z,48.89
2023-03-17T13:41:00.107Z,48.20
2023-03-17T13:44:29.110Z,48.92
2023-03-17T13:47:39.640Z,48.85
2023-03-17T13:50:42.222Z,49.30
2023-03-17T13:54:06.172Z,49.54
2023-03-17T13:57:23.033Z,49.51
2023-03-17T14:00:28.890Z,49.28
2023-03-17T14:03:37.665Z,50.28
2023-03-17T14:06:39.616Z,49.82
2023-03-17T14:09:41.553Z,50.04
2023-03-17T14:13:04.789Z,50.17
2023-03-17T14:16:27.687Z,51.12
2023-03-17T14:19:29.870Z,51.09
2023-03-17T14:22:31.253Z,51.20
2023-03-17T14:25:35.922Z,51.94
2023-03-17T14:28:37.663Z,51.54
2023-03-17T14:31:39.121Z,51.78
2023-03-17T14:34:48.528Z,52.29
2023-03-17T14:37:50.027Z,52.48
2023-03-17T14:41:03.473Z,52.24
2023-03-17T14:44:08.991Z,52.17
2023-03-17T14:47:22.826Z,52.07
2023-03-17T14:50:31.996Z,51.42
2023-03-17T14:53:35.528Z,51.45
2023-03-17T14:56:40.736Z,51.16
2023-03-17T14:59:54.544Z,50.95
2023-03-17T15:02:58.392Z,51.45
2023-03-17T15:06:26.052Z,50.79
2023-03-17T15:09:29.748Z,51.49
2023-03-17T15:12:31.574Z,51.57
2023-03-17T15:15:36.979Z,51.82
2023-03-17T15:18:38.381Z,52.07
2023-03-17T15:21:41.955Z,52.19
2023-03-17T15:24:43.375Z,53.18
2023-03-17T15:27:45.763Z,53.62
2023-03-17T15:30:50.270Z,53.66
2023-03-17T15:33:52.346Z,53.61
2023-03-17T15:36:53.751Z,53.92
2023-03-17T15:39:56.384Z,54.49
2023-03-17T15:42:57.772Z,54.73
2023-03-17T15:46:06.217Z,54.82
2023-03-17T15:49:12.162Z,55.45
2023-03-17T15:52:16.776Z,55.79
2023-03-17T15:55:23.936Z,56.05
2023-03-17T15:58:25.341Z,57.02
2023-03-17T16:01:28.039Z,57.29
2023-03-17T16:04:29.554Z,57.28
2023-03-17T16:07:31.044Z,57.55
2023-03-17T16:10:33.479Z,57.53
2023-03-17T16:13:35.154Z,57.95
2023-03-17T16:16:39.466Z,58.22
2023-03-17T16:19:40.944Z,58.23
2023-03-17T16:22:43.469Z,58.07
2023-03-17T16:25:46.159Z,58.52
2023-03-17T16:28:47.893Z,58.91
2023-03-17T16:31:50.983Z,58.99
2023-03-17T16:34:52.341Z,59.65
2023-03-17T16:37:54.067Z,60.14
2023-03-17T16:40:59.543Z,60.39
2023-03-17T16:44:02.252Z,61.42
2023-03-17T16:47:03.903Z,62.43
2023-03-17T16:50:14.564Z,63.26
2023-03-17T16:53:16.103Z,64.02
2023-03-17T16:56:22.400Z,64.49
2023-03-17T16:59:23.841Z,65.76
2023-03-17T17:02:25.335Z,66.44
2023-03-17T17:05:29.339Z,66.37
2023-03-17T17:08:30.725Z,66.83
2023-03-17T17:11:32.168Z,67.76
2023-03-17T17:14:33.578Z,68.23
2023-03-17T17:17:37.176Z,68.82
2023-03-17T17:20:40.182Z,69.21
2023-03-17T17:23:41.717Z,71.88
2023-03-17T17:26:43.139Z,73.41
2023-03-17T17:29:44.560Z,76.09
2023-03-17T17:32:46.639Z,77.92
2023-03-17T17:35:49.193Z,78.65
2023-03-17T17:38:50.617Z,79.59
2023-03-17T17:41:52.018Z,80.73
2023-03-17T17:44:53.423Z,82.79
2023-03-17T17:47:54.858Z,84.28
2023-03-17T17:50:57.259Z,85.27
2023-03-17T17:53:58.792Z,85.95
2023-03-17T17:57:00.716Z,86.03
2023-03-17T18:00:02.618Z,86.76
2023-03-17T18:03:10.263Z,88.52
2023-03-17T18:06:12.268Z,89.20
2023-03-17T18:09:14.822Z,89.14
2023-03-17T18:12:16.254Z,88.78
2023-03-17T18:15:18.023Z,88.65
2023-03-17T18:18:19.515Z,89.19
2023-03-17T18:21:20.948Z,90.75
2023-03-17T18:24:22.372Z,91.31
2023-03-17T18:27:23.761Z,91.80
2023-03-17T18:30:28.109Z,92.12
2023-03-17T18:33:29.641Z,92.47
2023-03-17T18:36:31.050Z,93.10
2023-03-17T18:39:32.431Z,93.93
2023-03-17T18:42:33.891Z,93.88
2023-03-17T18:45:35.385Z,93.43
2023-03-17T18:48:37.186Z,93.45
2023-03-17T18:51:38.636Z,93.85
2023-03-17T18:54:40.073Z,93.76
2023-03-17T18:57:44.426Z,93.31
2023-03-17T19:00:46.438Z,92.97
2023-03-17T19:03:47.917Z,92.37
2023-03-17T19:06:49.277Z,91.61
2023-03-17T19:09:50.704Z,92.30
2023-03-17T19:12:52.133Z,92.52
2023-03-17T19:15:53.510Z,92.74
2023-03-17T19:18:56.000Z,92.44
2023-03-17T19:21:57.429Z,92.91
2023-03-17T19:24:58.815Z,93.25
2023-03-17T19:28:00.166Z,92.24
2023-03-17T19:31:01.756Z,93.89
2023-03-17T19:34:03.190Z,97.45
2023-03-17T19:37:04.602Z,98.07
2023-03-17T19:40:08.252Z,97.88
2023-03-17T19:43:09.639Z,98.61
2023-03-17T19:46:11.724Z,99.96
2023-03-17T19:49:13.638Z,99.96
2023-03-17T19:52:15.044Z,100.00
2023-03-17T19:55:16.439Z,100.00
2023-03-17T19:58:17.857Z,100.00
2023-03-17T20:01:19.323Z,100.00
2023-03-17T20:04:20.801Z,99.93
2023-03-17T20:07:22.407Z,100.00
2023-03-17T20:10:23.895Z,100.00
2023-03-17T20:13:25.303Z,100.00
2023-03-17T20:16:27.024Z,100.00
2023-03-17T20:19:28.425Z,100.00
2023-03-17T20:22:29.853Z,100.00
2023-03-17T20:25:31.254Z,100.00
2023-03-17T20:28:32.884Z,100.00
2023-03-17T20:31:35.762Z,100.00
2023-03-17T20:34:37.672Z,100.00
2023-03-17T20:37:39.270Z,100.00
2023-03-17T20:40:40.653Z,100.00
2023-03-17T20:43:42.334Z,100.00
2023-03-17T20:46:43.965Z,100.00
2023-03-17T20:49:45.530Z,100.00
2023-03-17T20:52:47.121Z,100.00
2023-03-17T20:55:48.547Z,100.00
2023-03-17T20:58:50.924Z,100.00
2023-03-17T21:01:52.364Z,100.00
2023-03-17T21:04:53.753Z,100.00
2023-03-17T21:07:55.171Z,100.00
2023-03-17T21:10:56.642Z,100.00
2023-03-17T21:13:58.131Z,100.00
2023-03-17T21:16:59.887Z,100.00
2023-03-17T21:20:01.333Z,100.00
2023-03-17T21:23:02.757Z,100.00
2023-03-17T21:26:04.644Z,100.00
2023-03-17T21:29:06.012Z,100.00
2023-03-17T21:32:07.501Z,100.00
2023-03-17T21:35:09.422Z,100.00
2023-03-17T21:38:10.915Z,100.00
2023-03-17T21:41:41.432Z,100.00
2023-03-17T21:44:42.820Z,100.00
2023-03-17T21:47:44.493Z,100.00
2023-03-17T21:50:47.279Z,100.00
2023-03-17T21:53:49.064Z,100.00
2023-03-17T21:56:50.450Z,100.00
2023-03-17T21:59:51.861Z,100.00
2023-03-17T22:02:53.245Z,100.00
2023-03-17T22:05:54.886Z,100.00
2023-03-17T22:08:56.367Z,100.00
2023-03-17T22:11:57.761Z,100.00
2023-03-17T22:14:59.173Z,100.00
2023-03-17T22:18:00.691Z,100.00
2023-03-17T22:21:02.760Z,100.00
2023-03-17T22:24:04.191Z,100.00
2023-03-17T22:27:05.689Z,100.00
2023-03-17T22:30:07.765Z,100.00
2023-03-17T22:33:09.798Z,100.00
2023-03-17T22:36:11.785Z,100.00
2023-03-17T22:39:13.224Z,100.00
2023-03-17T22:42:14.653Z,100.00
2023-03-17T22:45:16.267Z,100.00
2023-03-17T22:48:17.697Z,100.00
2023-03-17T22:51:22.346Z,100.00
2023-03-17T22:54:23.844Z,100.00
2023-03-17T22:57:25.280Z,100.00
2023-03-17T23:00:26.717Z,100.00
2023-03-17T23:03:28.617Z,100.00
2023-03-17T23:06:30.048Z,100.00
2023-03-17T23:09:31.807Z,100.00
2023-03-17T23:12:34.456Z,100.00
2023-03-17T23:15:35.924Z,100.00
2023-03-17T23:18:37.318Z,100.00
2023-03-17T23:21:39.306Z,100.00
2023-03-17T23:24:40.702Z,100.00
2023-03-17T23:27:42.239Z,100.00
2023-03-17T23:30:44.123Z,100.00
2023-03-17T23:33:47.135Z,100.00
2023-03-17T23:36:48.646Z,100.00
2023-03-17T23:39:50.103Z,100.00
2023-03-17T23:42:51.718Z,100.00
2023-03-17T23:45:53.483Z,100.00
2023-03-17T23:48:54.925Z,100.00
2023-03-17T23:51:56.427Z,100.00
2023-03-17T23:54:57.948Z,100.00
2023-03-17T23:57:59.407Z,100.00
